KEN5050 KORS-KBFI
Flight info
| Callsign | KEN5050 |
|---|---|
| Flight time | 0h 34m |
| Altitude | 7000 |
| Route | CVV LOFAL |
| Aircraft | C208/L-SDFGRY/C |
Departure
| Time | 2026-05-07 14:53 |
|---|---|
| Airport | Orcas Island Airport (KORS) |
Arrival
| Time | 2026-05-07 15:28 |
|---|---|
| Airport | King County International Airport - Boeing Field (KBFI) |
| Time | Latitude | Longitude | Altitude | Speed | Heading |
|---|---|---|---|---|---|
| 2026-05-07 14:33 | 48.70518 | -122.90975 | 22 ft | 0 kts | 2° |
| 2026-05-07 14:47 | 48.70524 | -122.90986 | 22 ft | 4 kts | 278° |
| 2026-05-07 14:48 | 48.70566 | -122.91000 | 22 ft | 11 kts | 359° |
| 2026-05-07 14:48 | 48.70672 | -122.91001 | 23 ft | 16 kts | 1° |
| 2026-05-07 14:48 | 48.70775 | -122.91000 | 22 ft | 15 kts | 0° |
| 2026-05-07 14:48 | 48.70887 | -122.91000 | 23 ft | 18 kts | 0° |
| 2026-05-07 14:49 | 48.71002 | -122.90999 | 23 ft | 16 kts | 0° |
| 2026-05-07 14:49 | 48.71094 | -122.90998 | 22 ft | 12 kts | 2° |
| 2026-05-07 14:49 | 48.71178 | -122.90997 | 23 ft | 12 kts | 0° |
| 2026-05-07 14:49 | 48.71202 | -122.91000 | 22 ft | 0 kts | 329° |
| 2026-05-07 14:51 | 48.71202 | -122.91001 | 22 ft | 1 kts | 329° |
| 2026-05-07 14:51 | 48.71214 | -122.91046 | 24 ft | 9 kts | 260° |
| 2026-05-07 14:51 | 48.71190 | -122.91061 | 22 ft | 0 kts | 181° |
| 2026-05-07 14:52 | 48.71028 | -122.91061 | 24 ft | 51 kts | 180° |
| 2026-05-07 14:52 | 48.70537 | -122.91059 | 84 ft | 82 kts | 178° |
| 2026-05-07 14:53 | 48.69963 | -122.91053 | 303 ft | 83 kts | 179° |
| 2026-05-07 14:53 | 48.69397 | -122.90977 | 523 ft | 81 kts | 172° |
| 2026-05-07 14:53 | 48.68813 | -122.90829 | 686 ft | 88 kts | 164° |
| 2026-05-07 14:53 | 48.68195 | -122.90587 | 852 ft | 97 kts | 166° |
| 2026-05-07 14:54 | 48.67498 | -122.90310 | 1042 ft | 109 kts | 166° |
| 2026-05-07 14:54 | 48.66735 | -122.90001 | 1243 ft | 117 kts | 165° |
| 2026-05-07 14:54 | 48.65994 | -122.89463 | 1471 ft | 121 kts | 139° |
| 2026-05-07 14:54 | 48.65274 | -122.88843 | 1729 ft | 120 kts | 165° |
| 2026-05-07 14:55 | 48.64473 | -122.88495 | 1998 ft | 120 kts | 164° |
| 2026-05-07 14:55 | 48.63670 | -122.88145 | 2256 ft | 120 kts | 166° |
| 2026-05-07 14:55 | 48.62863 | -122.87807 | 2517 ft | 121 kts | 165° |
| 2026-05-07 14:55 | 48.62042 | -122.87473 | 2775 ft | 123 kts | 165° |
| 2026-05-07 14:56 | 48.61216 | -122.87137 | 3029 ft | 123 kts | 165° |
| 2026-05-07 14:56 | 48.60394 | -122.86807 | 3281 ft | 122 kts | 164° |
| 2026-05-07 14:56 | 48.59576 | -122.86476 | 3532 ft | 122 kts | 163° |
| 2026-05-07 14:56 | 48.58758 | -122.86144 | 3779 ft | 122 kts | 163° |
| 2026-05-07 14:57 | 48.57942 | -122.85834 | 4036 ft | 123 kts | 166° |
| 2026-05-07 14:57 | 48.57108 | -122.85516 | 4288 ft | 124 kts | 163° |
| 2026-05-07 14:57 | 48.56275 | -122.85179 | 4545 ft | 124 kts | 164° |
| 2026-05-07 14:57 | 48.55437 | -122.84841 | 4806 ft | 125 kts | 164° |
| 2026-05-07 14:58 | 48.54596 | -122.84502 | 5061 ft | 125 kts | 163° |
| 2026-05-07 14:58 | 48.53759 | -122.84163 | 5311 ft | 124 kts | 163° |
| 2026-05-07 14:58 | 48.52930 | -122.83829 | 5560 ft | 123 kts | 163° |
| 2026-05-07 14:58 | 48.52110 | -122.83497 | 5811 ft | 122 kts | 163° |
| 2026-05-07 14:59 | 48.51297 | -122.83170 | 6036 ft | 120 kts | 163° |
| 2026-05-07 14:59 | 48.50486 | -122.82842 | 6253 ft | 123 kts | 163° |
| 2026-05-07 14:59 | 48.49575 | -122.82484 | 6150 ft | 149 kts | 164° |
| 2026-05-07 14:59 | 48.48512 | -122.82078 | 5936 ft | 167 kts | 165° |
| 2026-05-07 15:00 | 48.47359 | -122.81627 | 5676 ft | 173 kts | 164° |
| 2026-05-07 15:00 | 48.46194 | -122.81157 | 5485 ft | 173 kts | 164° |
| 2026-05-07 15:00 | 48.45026 | -122.80687 | 5241 ft | 174 kts | 164° |
| 2026-05-07 15:00 | 48.43855 | -122.80215 | 5017 ft | 173 kts | 164° |
| 2026-05-07 15:01 | 48.42729 | -122.79762 | 5007 ft | 163 kts | 164° |
| 2026-05-07 15:01 | 48.41654 | -122.79326 | 5007 ft | 158 kts | 164° |
| 2026-05-07 15:01 | 48.40605 | -122.78903 | 5004 ft | 155 kts | 163° |
| 2026-05-07 15:01 | 48.39575 | -122.78490 | 5006 ft | 152 kts | 163° |
| 2026-05-07 15:02 | 48.38557 | -122.78080 | 5005 ft | 151 kts | 164° |
| 2026-05-07 15:02 | 48.37545 | -122.77676 | 5006 ft | 151 kts | 164° |
| 2026-05-07 15:02 | 48.36531 | -122.77270 | 4999 ft | 149 kts | 164° |
| 2026-05-07 15:02 | 48.35529 | -122.76868 | 4992 ft | 148 kts | 164° |
| 2026-05-07 15:03 | 48.34513 | -122.76459 | 4828 ft | 155 kts | 165° |
| 2026-05-07 15:03 | 48.33453 | -122.76047 | 4574 ft | 159 kts | 165° |
| 2026-05-07 15:03 | 48.32375 | -122.75621 | 4322 ft | 161 kts | 164° |
| 2026-05-07 15:03 | 48.31295 | -122.75188 | 4075 ft | 160 kts | 165° |
| 2026-05-07 15:04 | 48.30234 | -122.74765 | 3823 ft | 159 kts | 165° |
| 2026-05-07 15:04 | 48.29169 | -122.74341 | 3572 ft | 158 kts | 165° |
| 2026-05-07 15:04 | 48.28100 | -122.73917 | 3320 ft | 160 kts | 165° |
| 2026-05-07 15:04 | 48.27021 | -122.73488 | 3060 ft | 160 kts | 165° |
| 2026-05-07 15:05 | 48.25968 | -122.73070 | 3005 ft | 151 kts | 165° |
| 2026-05-07 15:05 | 48.24982 | -122.72670 | 2995 ft | 144 kts | 165° |
| 2026-05-07 15:05 | 48.24013 | -122.72387 | 2993 ft | 141 kts | 175° |
| 2026-05-07 15:05 | 48.23039 | -122.72298 | 2990 ft | 139 kts | 175° |
| 2026-05-07 15:06 | 48.22089 | -122.72192 | 3020 ft | 136 kts | 175° |
| 2026-05-07 15:06 | 48.21144 | -122.72085 | 3020 ft | 136 kts | 175° |
| 2026-05-07 15:06 | 48.20212 | -122.71980 | 3018 ft | 136 kts | 175° |
| 2026-05-07 15:06 | 48.19266 | -122.71870 | 3020 ft | 137 kts | 174° |
| 2026-05-07 15:07 | 48.18318 | -122.71753 | 3020 ft | 137 kts | 174° |
| 2026-05-07 15:07 | 48.17358 | -122.71642 | 3020 ft | 137 kts | 175° |
| 2026-05-07 15:07 | 48.16418 | -122.71537 | 3021 ft | 137 kts | 175° |
| 2026-05-07 15:07 | 48.15462 | -122.71431 | 3021 ft | 138 kts | 174° |
| 2026-05-07 15:08 | 48.14496 | -122.71322 | 3018 ft | 139 kts | 174° |
| 2026-05-07 15:08 | 48.13531 | -122.71213 | 3019 ft | 139 kts | 174° |
| 2026-05-07 15:08 | 48.12563 | -122.71105 | 3019 ft | 139 kts | 174° |
| 2026-05-07 15:08 | 48.11594 | -122.70997 | 3019 ft | 140 kts | 174° |
| 2026-05-07 15:09 | 48.10622 | -122.70888 | 3017 ft | 140 kts | 174° |
| 2026-05-07 15:09 | 48.09654 | -122.70780 | 3012 ft | 139 kts | 174° |
| 2026-05-07 15:09 | 48.08688 | -122.70672 | 3008 ft | 139 kts | 174° |
| 2026-05-07 15:09 | 48.07722 | -122.70564 | 3004 ft | 139 kts | 174° |
| 2026-05-07 15:10 | 48.06762 | -122.70457 | 3004 ft | 140 kts | 174° |
| 2026-05-07 15:10 | 48.05786 | -122.70348 | 3001 ft | 141 kts | 175° |
| 2026-05-07 15:10 | 48.04810 | -122.70239 | 2999 ft | 141 kts | 174° |
| 2026-05-07 15:10 | 48.03827 | -122.70130 | 2997 ft | 142 kts | 175° |
| 2026-05-07 15:11 | 48.02840 | -122.70020 | 2993 ft | 143 kts | 174° |
| 2026-05-07 15:11 | 48.01847 | -122.69909 | 2990 ft | 143 kts | 174° |
| 2026-05-07 15:11 | 48.00853 | -122.69798 | 2988 ft | 143 kts | 174° |
| 2026-05-07 15:11 | 47.99863 | -122.69690 | 2983 ft | 143 kts | 174° |
| 2026-05-07 15:12 | 47.98868 | -122.69577 | 2980 ft | 143 kts | 174° |
| 2026-05-07 15:12 | 47.97882 | -122.69467 | 2974 ft | 142 kts | 175° |
| 2026-05-07 15:12 | 47.96917 | -122.69360 | 2970 ft | 140 kts | 175° |
| 2026-05-07 15:12 | 47.95949 | -122.69252 | 2965 ft | 139 kts | 175° |
| 2026-05-07 15:13 | 47.94986 | -122.69140 | 2958 ft | 139 kts | 175° |
| 2026-05-07 15:13 | 47.94021 | -122.69030 | 2953 ft | 139 kts | 175° |
| 2026-05-07 15:13 | 47.93056 | -122.68917 | 2949 ft | 140 kts | 175° |
| 2026-05-07 15:13 | 47.92075 | -122.68807 | 2949 ft | 143 kts | 175° |
| 2026-05-07 15:14 | 47.91080 | -122.68693 | 2959 ft | 145 kts | 175° |
| 2026-05-07 15:14 | 47.90070 | -122.68578 | 2962 ft | 146 kts | 175° |
| 2026-05-07 15:14 | 47.89055 | -122.68460 | 2975 ft | 147 kts | 175° |
| 2026-05-07 15:14 | 47.88033 | -122.68342 | 2977 ft | 147 kts | 175° |
| 2026-05-07 15:15 | 47.87009 | -122.68221 | 2975 ft | 148 kts | 175° |
| 2026-05-07 15:15 | 47.85983 | -122.68102 | 2976 ft | 148 kts | 175° |
| 2026-05-07 15:15 | 47.84954 | -122.67982 | 2976 ft | 148 kts | 175° |
| 2026-05-07 15:15 | 47.83927 | -122.67865 | 2976 ft | 148 kts | 175° |
| 2026-05-07 15:16 | 47.82901 | -122.67730 | 2974 ft | 148 kts | 173° |
| 2026-05-07 15:16 | 47.81896 | -122.67404 | 2982 ft | 148 kts | 160° |
| 2026-05-07 15:16 | 47.81033 | -122.66626 | 2966 ft | 148 kts | 138° |
| 2026-05-07 15:16 | 47.80295 | -122.65567 | 2969 ft | 147 kts | 135° |
| 2026-05-07 15:17 | 47.79566 | -122.64490 | 2971 ft | 147 kts | 135° |
| 2026-05-07 15:17 | 47.78840 | -122.63411 | 2972 ft | 147 kts | 135° |
| 2026-05-07 15:17 | 47.78109 | -122.62324 | 2905 ft | 152 kts | 135° |
| 2026-05-07 15:17 | 47.77348 | -122.61201 | 2786 ft | 156 kts | 135° |
| 2026-05-07 15:18 | 47.76574 | -122.60052 | 2665 ft | 158 kts | 135° |
| 2026-05-07 15:18 | 47.75789 | -122.58889 | 2541 ft | 159 kts | 135° |
| 2026-05-07 15:18 | 47.75004 | -122.57725 | 2431 ft | 160 kts | 135° |
| 2026-05-07 15:18 | 47.74214 | -122.56554 | 2306 ft | 160 kts | 135° |
| 2026-05-07 15:19 | 47.73427 | -122.55387 | 2178 ft | 160 kts | 135° |
| 2026-05-07 15:19 | 47.72663 | -122.54253 | 2118 ft | 151 kts | 135° |
| 2026-05-07 15:19 | 47.71955 | -122.53191 | 2076 ft | 140 kts | 135° |
| 2026-05-07 15:19 | 47.71288 | -122.52196 | 2038 ft | 132 kts | 137° |
| 2026-05-07 15:20 | 47.70647 | -122.51255 | 1996 ft | 127 kts | 137° |
| 2026-05-07 15:20 | 47.70028 | -122.50340 | 1949 ft | 123 kts | 137° |
| 2026-05-07 15:20 | 47.69425 | -122.49445 | 1920 ft | 122 kts | 137° |
| 2026-05-07 15:20 | 47.68828 | -122.48560 | 1887 ft | 121 kts | 137° |
| 2026-05-07 15:21 | 47.68224 | -122.47680 | 1865 ft | 121 kts | 137° |
| 2026-05-07 15:21 | 47.67626 | -122.46799 | 1836 ft | 121 kts | 137° |
| 2026-05-07 15:21 | 47.67036 | -122.45930 | 1810 ft | 119 kts | 137° |
| 2026-05-07 15:21 | 47.66450 | -122.45066 | 1785 ft | 119 kts | 137° |
| 2026-05-07 15:22 | 47.65858 | -122.44193 | 1763 ft | 121 kts | 137° |
| 2026-05-07 15:22 | 47.65266 | -122.43321 | 1747 ft | 122 kts | 137° |
| 2026-05-07 15:22 | 47.64667 | -122.42437 | 1716 ft | 121 kts | 139° |
| 2026-05-07 15:22 | 47.64076 | -122.41568 | 1688 ft | 117 kts | 139° |
| 2026-05-07 15:23 | 47.63502 | -122.40724 | 1652 ft | 115 kts | 139° |
| 2026-05-07 15:23 | 47.62972 | -122.39940 | 1637 ft | 102 kts | 139° |
| 2026-05-07 15:23 | 47.62471 | -122.39195 | 1625 ft | 102 kts | 138° |
| 2026-05-07 15:23 | 47.61965 | -122.38449 | 1624 ft | 101 kts | 139° |
| 2026-05-07 15:24 | 47.61467 | -122.37713 | 1626 ft | 101 kts | 140° |
| 2026-05-07 15:24 | 47.60959 | -122.36984 | 1609 ft | 103 kts | 144° |
| 2026-05-07 15:24 | 47.60353 | -122.36469 | 1505 ft | 97 kts | 154° |
| 2026-05-07 15:24 | 47.59810 | -122.36012 | 1376 ft | 84 kts | 154° |
| 2026-05-07 15:25 | 47.59327 | -122.35602 | 1257 ft | 77 kts | 153° |
| 2026-05-07 15:25 | 47.58864 | -122.35206 | 1154 ft | 77 kts | 152° |
| 2026-05-07 15:25 | 47.58393 | -122.34803 | 1056 ft | 80 kts | 152° |
| 2026-05-07 15:25 | 47.57895 | -122.34384 | 943 ft | 83 kts | 152° |
| 2026-05-07 15:26 | 47.57413 | -122.33971 | 832 ft | 76 kts | 151° |
| 2026-05-07 15:26 | 47.56963 | -122.33576 | 706 ft | 75 kts | 152° |
| 2026-05-07 15:26 | 47.56512 | -122.33195 | 595 ft | 75 kts | 153° |
| 2026-05-07 15:26 | 47.56211 | -122.32950 | 537 ft | 75 kts | 153° |
| 2026-05-07 15:27 | 47.55754 | -122.32582 | 425 ft | 75 kts | 152° |
| 2026-05-07 15:27 | 47.55302 | -122.32183 | 341 ft | 75 kts | 151° |
| 2026-05-07 15:27 | 47.54865 | -122.31814 | 250 ft | 71 kts | 153° |
| 2026-05-07 15:27 | 47.54298 | -122.31347 | 87 ft | 69 kts | 152° |
| 2026-05-07 15:28 | 47.54026 | -122.31109 | 40 ft | 66 kts | 152° |
| 2026-05-07 15:28 | 47.53677 | -122.30814 | 24 ft | 44 kts | 152° |
| 2026-05-07 15:28 | 47.53488 | -122.30658 | 22 ft | 30 kts | 150° |
| 2026-05-07 15:28 | 47.53398 | -122.30528 | 23 ft | 16 kts | 97° |
| 2026-05-07 15:29 | 47.53387 | -122.30399 | 24 ft | 13 kts | 97° |
| 2026-05-07 15:29 | 47.53428 | -122.30321 | 26 ft | 12 kts | 356° |
| 2026-05-07 15:29 | 47.53516 | -122.30380 | 26 ft | 16 kts | 330° |
| 2026-05-07 15:29 | 47.53593 | -122.30425 | 26 ft | 12 kts | 10° |
| 2026-05-07 15:30 | 47.53643 | -122.30443 | 26 ft | 7 kts | 320° |
| 2026-05-07 15:30 | 47.53649 | -122.30450 | 26 ft | 0 kts | 321° |